sensor_id;sensor_type;location;lat;lon;timestamp;pressure;altitude;pressure_sealevel;temperature;humidity
69737;BME280;64476;55.004;73.342;2023-03-01T00:02:30;99555.38;;;-1.25;64.42
69737;BME280;64476;55.004;73.342;2023-03-01T00:05:31;99602.31;;;-0.96;63.97
69737;BME280;64476;55.004;73.342;2023-03-01T00:08:43;99529.75;;;-1.40;64.18
69737;BME280;64476;55.004;73.342;2023-03-01T00:11:46;99559.28;;;-1.20;63.99
69737;BME280;64476;55.004;73.342;2023-03-01T00:14:47;99598.78;;;-0.95;63.96
69737;BME280;64476;55.004;73.342;2023-03-01T00:17:59;99587.25;;;-1.02;64.41
69737;BME280;64476;55.004;73.342;2023-03-01T00:21:01;99549.81;;;-1.19;63.84
69737;BME280;64476;55.004;73.342;2023-03-01T00:24:08;99581.06;;;-1.00;63.85
69737;BME280;64476;55.004;73.342;2023-03-01T00:27:20;99498.56;;;-1.48;63.95
69737;BME280;64476;55.004;73.342;2023-03-01T00:30:22;99594.13;;;-0.90;63.94
69737;BME280;64476;55.004;73.342;2023-03-01T00:33:24;99577.75;;;-1.02;64.32
69737;BME280;64476;55.004;73.342;2023-03-01T00:36:32;99545.81;;;-1.23;64.04
69737;BME280;64476;55.004;73.342;2023-03-01T00:39:34;99588.47;;;-0.95;64.27
69737;BME280;64476;55.004;73.342;2023-03-01T00:42:40;99554.13;;;-1.20;64.16
69737;BME280;64476;55.004;73.342;2023-03-01T00:45:52;99577.53;;;-0.99;64.43
69737;BME280;64476;55.004;73.342;2023-03-01T00:48:54;99581.06;;;-1.00;64.60
69737;BME280;64476;55.004;73.342;2023-03-01T00:52:02;99568.50;;;-1.04;64.61
69737;BME280;64476;55.004;73.342;2023-03-01T00:55:05;99526.97;;;-1.37;64.71
69737;BME280;64476;55.004;73.342;2023-03-01T00:58:07;99560.38;;;-1.11;64.60
69737;BME280;64476;55.004;73.342;2023-03-01T01:01:25;99565.72;;;-1.01;64.93
69737;BME280;64476;55.004;73.342;2023-03-01T01:04:31;99550.88;;;-1.11;64.95
69737;BME280;64476;55.004;73.342;2023-03-01T01:07:32;99569.72;;;-0.97;64.96
69737;BME280;64476;55.004;73.342;2023-03-01T01:10:45;99418.47;;;-1.93;64.98
69737;BME280;64476;55.004;73.342;2023-03-01T01:13:49;99569.50;;;-0.94;65.14
69737;BME280;64476;55.004;73.342;2023-03-01T01:16:52;99567.97;;;-0.97;64.94
69737;BME280;64476;55.004;73.342;2023-03-01T01:19:54;99573.22;;;-0.98;65.35
69737;BME280;64476;55.004;73.342;2023-03-01T01:22:56;99572.31;;;-0.97;65.01
69737;BME280;64476;55.004;73.342;2023-03-01T01:26:04;99489.81;;;-1.45;65.11
69737;BME280;64476;55.004;73.342;2023-03-01T01:29:43;99518.59;;;-1.27;64.77
69737;BME280;64476;55.004;73.342;2023-03-01T01:32:50;99522.69;;;-1.25;64.93
69737;BME280;64476;55.004;73.342;2023-03-01T01:35:56;99545.53;;;-1.07;64.75
69737;BME280;64476;55.004;73.342;2023-03-01T01:38:59;99521.53;;;-1.21;65.00
69737;BME280;64476;55.004;73.342;2023-03-01T01:42:01;99512.59;;;-1.28;64.93
69737;BME280;64476;55.004;73.342;2023-03-01T01:48:23;99513.97;;;-1.35;64.79
69737;BME280;64476;55.004;73.342;2023-03-01T01:51:40;99545.78;;;-0.99;65.16
69737;BME280;64476;55.004;73.342;2023-03-01T01:57:57;99539.09;;;-1.02;65.11
69737;BME280;64476;55.004;73.342;2023-03-01T02:01:00;99544.19;;;-0.89;65.00
69737;BME280;64476;55.004;73.342;2023-03-01T02:04:03;99491.72;;;-1.12;64.53
69737;BME280;64476;55.004;73.342;2023-03-01T02:10:21;99424.72;;;-1.36;64.61
69737;BME280;64476;55.004;73.342;2023-03-01T02:13:24;99464.31;;;-1.02;64.68
69737;BME280;64476;55.004;73.342;2023-03-01T02:16:30;99526.66;;;-0.73;64.39
69737;BME280;64476;55.004;73.342;2023-03-01T02:20:01;99536.41;;;-0.65;64.29
69737;BME280;64476;55.004;73.342;2023-03-01T02:23:08;99502.38;;;-0.81;64.22
69737;BME280;64476;55.004;73.342;2023-03-01T02:29:46;99524.25;;;-0.52;64.08
69737;BME280;64476;55.004;73.342;2023-03-01T02:32:50;99464.41;;;-0.79;64.33
69737;BME280;64476;55.004;73.342;2023-03-01T02:36:24;99487.06;;;-0.49;63.65
69737;BME280;64476;55.004;73.342;2023-03-01T02:42:43;99507.97;;;-0.19;63.61
69737;BME280;64476;55.004;73.342;2023-03-01T02:45:51;99498.59;;;-0.08;63.44
69737;BME280;64476;55.004;73.342;2023-03-01T02:48:59;99440.84;;;-0.41;63.12
69737;BME280;64476;55.004;73.342;2023-03-01T02:55:46;99497.78;;;-0.09;63.34
69737;BME280;64476;55.004;73.342;2023-03-01T02:58:48;99510.34;;;0.07;63.58
69737;BME280;64476;55.004;73.342;2023-03-01T03:02:06;99443.78;;;-0.23;62.77
69737;BME280;64476;55.004;73.342;2023-03-01T03:05:15;99477.59;;;-0.04;62.62
69737;BME280;64476;55.004;73.342;2023-03-01T03:08:17;99494.25;;;-0.08;63.22
69737;BME280;64476;55.004;73.342;2023-03-01T03:11:23;99500.81;;;-0.04;63.37
69737;BME280;64476;55.004;73.342;2023-03-01T03:14:27;99499.66;;;0.00;63.67
69737;BME280;64476;55.004;73.342;2023-03-01T03:17:37;99491.09;;;-0.00;63.47
69737;BME280;64476;55.004;73.342;2023-03-01T03:20:48;99462.00;;;-0.02;64.00
69737;BME280;64476;55.004;73.342;2023-03-01T03:24:04;99469.56;;;0.22;63.45
69737;BME280;64476;55.004;73.342;2023-03-01T03:27:16;99435.44;;;0.07;63.35
69737;BME280;64476;55.004;73.342;2023-03-01T03:30:18;99471.53;;;0.41;63.92
69737;BME280;64476;55.004;73.342;2023-03-01T03:33:30;99478.78;;;0.58;63.71
69737;BME280;64476;55.004;73.342;2023-03-01T03:36:32;99469.38;;;0.57;63.57
69737;BME280;64476;55.004;73.342;2023-03-01T03:39:35;99435.19;;;0.53;63.52
69737;BME280;64476;55.004;73.342;2023-03-01T03:42:43;99478.78;;;0.90;63.28
69737;BME280;64476;55.004;73.342;2023-03-01T03:45:51;99449.19;;;0.83;63.64
69737;BME280;64476;55.004;73.342;2023-03-01T03:48:53;99451.00;;;0.92;63.03
69737;BME280;64476;55.004;73.342;2023-03-01T03:51:57;99451.81;;;0.93;63.53
69737;BME280;64476;55.004;73.342;2023-03-01T03:54:58;99426.16;;;0.80;63.13
69737;BME280;64476;55.004;73.342;2023-03-01T03:58:15;99413.47;;;0.77;63.17
69737;BME280;64476;55.004;73.342;2023-03-01T04:01:27;99461.38;;;1.13;63.55
69737;BME280;64476;55.004;73.342;2023-03-01T04:04:30;99403.22;;;0.87;63.42
69737;BME280;64476;55.004;73.342;2023-03-01T04:07:42;99449.66;;;1.09;63.24
69737;BME280;64476;55.004;73.342;2023-03-01T04:10:45;99400.22;;;0.91;62.77
69737;BME280;64476;55.004;73.342;2023-03-01T04:13:50;99391.34;;;0.84;63.60
69737;BME280;64476;55.004;73.342;2023-03-01T04:16:52;99433.22;;;1.20;63.17
69737;BME280;64476;55.004;73.342;2023-03-01T04:19:55;99433.09;;;1.21;63.13
69737;BME280;64476;55.004;73.342;2023-03-01T04:23:06;99277.38;;;0.34;62.29
69737;BME280;64476;55.004;73.342;2023-03-01T04:26:22;99423.06;;;1.28;62.99
69737;BME280;64476;55.004;73.342;2023-03-01T04:29:29;99412.16;;;1.24;62.95
69737;BME280;64476;55.004;73.342;2023-03-01T04:32:32;99421.47;;;1.37;62.73
69737;BME280;64476;55.004;73.342;2023-03-01T04:35:39;99403.03;;;1.30;63.07
69737;BME280;64476;55.004;73.342;2023-03-01T04:38:42;99363.63;;;1.17;62.43
69737;BME280;64476;55.004;73.342;2023-03-01T04:41:53;99405.53;;;1.41;62.74
69737;BME280;64476;55.004;73.342;2023-03-01T04:44:54;99394.81;;;1.46;62.75
69737;BME280;64476;55.004;73.342;2023-03-01T04:48:39;99403.81;;;1.51;62.06
69737;BME280;64476;55.004;73.342;2023-03-01T04:55:27;99390.84;;;1.42;62.07
69737;BME280;64476;55.004;73.342;2023-03-01T04:58:34;99397.91;;;1.40;62.63
69737;BME280;64476;55.004;73.342;2023-03-01T05:01:35;99385.47;;;1.33;62.74
69737;BME280;64476;55.004;73.342;2023-03-01T05:04:46;99349.72;;;1.18;62.76
69737;BME280;64476;55.004;73.342;2023-03-01T05:07:58;99335.00;;;1.18;61.94
69737;BME280;64476;55.004;73.342;2023-03-01T05:11:00;99380.50;;;1.42;62.99
69737;BME280;64476;55.004;73.342;2023-03-01T05:14:03;99335.84;;;1.19;62.12
69737;BME280;64476;55.004;73.342;2023-03-01T05:17:14;99374.75;;;1.38;62.37
69737;BME280;64476;55.004;73.342;2023-03-01T05:20:28;99338.72;;;1.25;62.24
69737;BME280;64476;55.004;73.342;2023-03-01T05:23:35;99339.81;;;1.23;62.60
69737;BME280;64476;55.004;73.342;2023-03-01T05:26:37;99325.31;;;1.11;62.47
69737;BME280;64476;55.004;73.342;2023-03-01T05:29:41;99322.16;;;1.07;62.36
69737;BME280;64476;55.004;73.342;2023-03-01T05:32:57;99369.56;;;1.38;62.22
69737;BME280;64476;55.004;73.342;2023-03-01T05:36:01;99355.53;;;1.31;62.45
69737;BME280;64476;55.004;73.342;2023-03-01T05:39:02;99355.94;;;1.36;62.10
69737;BME280;64476;55.004;73.342;2023-03-01T05:42:05;99360.84;;;1.39;62.01
69737;BME280;64476;55.004;73.342;2023-03-01T05:45:07;99348.69;;;1.30;62.71
69737;BME280;64476;55.004;73.342;2023-03-01T05:48:11;99364.91;;;1.32;62.66
69737;BME280;64476;55.004;73.342;2023-03-01T05:51:23;99375.00;;;1.35;62.57
69737;BME280;64476;55.004;73.342;2023-03-01T05:54:25;99347.13;;;1.18;62.65
69737;BME280;64476;55.004;73.342;2023-03-01T05:57:31;99329.69;;;1.10;63.22
69737;BME280;64476;55.004;73.342;2023-03-01T06:00:44;99322.91;;;1.19;62.84
69737;BME280;64476;55.004;73.342;2023-03-01T06:03:46;99366.72;;;1.41;62.77
69737;BME280;64476;55.004;73.342;2023-03-01T06:06:48;99356.81;;;1.46;62.33
69737;BME280;64476;55.004;73.342;2023-03-01T06:09:54;99295.69;;;1.24;62.11
69737;BME280;64476;55.004;73.342;2023-03-01T06:16:48;99287.06;;;1.14;61.78
69737;BME280;64476;55.004;73.342;2023-03-01T06:19:55;99352.94;;;1.41;62.02
69737;BME280;64476;55.004;73.342;2023-03-01T06:22:57;99362.75;;;1.37;61.67
69737;BME280;64476;55.004;73.342;2023-03-01T06:25:58;99307.53;;;0.96;62.54
69737;BME280;64476;55.004;73.342;2023-03-01T06:29:01;99340.97;;;1.09;62.54
69737;BME280;64476;55.004;73.342;2023-03-01T06:32:08;99343.19;;;0.93;63.89
69737;BME280;64476;55.004;73.342;2023-03-01T06:35:11;99302.50;;;0.64;63.17
69737;BME280;64476;55.004;73.342;2023-03-01T06:38:47;99345.34;;;0.88;63.74
69737;BME280;64476;55.004;73.342;2023-03-01T06:41:49;99355.53;;;0.79;63.81
69737;BME280;64476;55.004;73.342;2023-03-01T06:45:25;99368.31;;;0.81;64.13
69737;BME280;64476;55.004;73.342;2023-03-01T06:48:37;99354.63;;;0.69;64.90
69737;BME280;64476;55.004;73.342;2023-03-01T06:52:08;99350.56;;;0.55;64.57
69737;BME280;64476;55.004;73.342;2023-03-01T06:55:12;99222.22;;;-0.18;64.64
69737;BME280;64476;55.004;73.342;2023-03-01T06:58:15;99356.88;;;0.63;64.19
69737;BME280;64476;55.004;73.342;2023-03-01T07:01:18;99204.78;;;-0.37;64.73
69737;BME280;64476;55.004;73.342;2023-03-01T07:04:34;99310.66;;;0.48;64.55
69737;BME280;64476;55.004;73.342;2023-03-01T07:07:37;99303.38;;;0.53;64.03
69737;BME280;64476;55.004;73.342;2023-03-01T07:11:46;99321.50;;;0.84;64.05
69737;BME280;64476;55.004;73.342;2023-03-01T07:14:50;99307.78;;;0.93;63.88
69737;BME280;64476;55.004;73.342;2023-03-01T07:18:06;99326.66;;;1.05;63.17
69737;BME280;64476;55.004;73.342;2023-03-01T07:21:28;99162.06;;;0.12;63.48
69737;BME280;64476;55.004;73.342;2023-03-01T07:24:30;99306.47;;;0.99;63.62
69737;BME280;64476;55.004;73.342;2023-03-01T07:27:52;99288.78;;;1.04;63.10
69737;BME280;64476;55.004;73.342;2023-03-01T07:30:55;99260.41;;;0.93;63.53
69737;BME280;64476;55.004;73.342;2023-03-01T07:33:57;99266.59;;;1.01;62.74
69737;BME280;64476;55.004;73.342;2023-03-01T07:37:03;99289.69;;;1.24;62.78
69737;BME280;64476;55.004;73.342;2023-03-01T07:40:06;99280.84;;;1.26;62.45
69737;BME280;64476;55.004;73.342;2023-03-01T07:43:12;99269.00;;;1.24;62.56
69737;BME280;64476;55.004;73.342;2023-03-01T07:46:28;99184.94;;;0.68;62.17
69737;BME280;64476;55.004;73.342;2023-03-01T07:49:29;99276.09;;;1.31;62.91
69737;BME280;64476;55.004;73.342;2023-03-01T07:52:36;99263.13;;;1.22;62.28
69737;BME280;64476;55.004;73.342;2023-03-01T07:55:38;99273.91;;;1.27;62.29
69737;BME280;64476;55.004;73.342;2023-03-01T07:58:49;99273.47;;;1.22;62.44
69737;BME280;64476;55.004;73.342;2023-03-01T08:02:01;99225.97;;;0.92;62.56
69737;BME280;64476;55.004;73.342;2023-03-01T08:05:09;99253.13;;;1.07;63.17
69737;BME280;64476;55.004;73.342;2023-03-01T08:08:11;99224.34;;;0.91;62.73
69737;BME280;64476;55.004;73.342;2023-03-01T08:11:23;99164.16;;;0.49;62.85
69737;BME280;64476;55.004;73.342;2023-03-01T08:14:30;99253.31;;;1.16;63.12
69737;BME280;64476;55.004;73.342;2023-03-01T08:17:33;99254.28;;;1.24;63.47
69737;BME280;64476;55.004;73.342;2023-03-01T08:20:48;99225.06;;;1.03;63.08
69737;BME280;64476;55.004;73.342;2023-03-01T08:24:25;99190.47;;;0.94;63.08
69737;BME280;64476;55.004;73.342;2023-03-01T08:27:27;99226.22;;;1.20;63.72
69737;BME280;64476;55.004;73.342;2023-03-01T08:30:38;99188.16;;;0.91;63.56
69737;BME280;64476;55.004;73.342;2023-03-01T08:33:57;99177.84;;;1.01;63.29
69737;BME280;64476;55.004;73.342;2023-03-01T08:36:59;99184.75;;;1.00;63.25
69737;BME280;64476;55.004;73.342;2023-03-01T08:44:28;99224.13;;;1.04;63.69
69737;BME280;64476;55.004;73.342;2023-03-01T08:47:30;99242.00;;;1.17;63.96
69737;BME280;64476;55.004;73.342;2023-03-01T08:50:32;99240.09;;;1.19;63.74
69737;BME280;64476;55.004;73.342;2023-03-01T08:53:33;99210.91;;;0.97;63.76
69737;BME280;64476;55.004;73.342;2023-03-01T08:56:35;99232.06;;;1.12;64.13
69737;BME280;64476;55.004;73.342;2023-03-01T08:59:37;99227.00;;;1.11;63.73
69737;BME280;64476;55.004;73.342;2023-03-01T09:02:39;99183.22;;;0.88;64.56
69737;BME280;64476;55.004;73.342;2023-03-01T09:05:43;99213.53;;;1.17;63.98
69737;BME280;64476;55.004;73.342;2023-03-01T09:08:48;99197.72;;;1.10;64.10
69737;BME280;64476;55.004;73.342;2023-03-01T09:11:55;99097.16;;;0.67;63.41
69737;BME280;64476;55.004;73.342;2023-03-01T09:14:59;99179.25;;;1.34;63.98
69737;BME280;64476;55.004;73.342;2023-03-01T09:18:01;99195.78;;;1.52;63.51
69737;BME280;64476;55.004;73.342;2023-03-01T09:21:19;99146.16;;;1.38;63.01
69737;BME280;64476;55.004;73.342;2023-03-01T09:24:24;99174.63;;;1.67;62.63
69737;BME280;64476;55.004;73.342;2023-03-01T09:27:30;99178.03;;;1.87;63.09
69737;BME280;64476;55.004;73.342;2023-03-01T09:30:32;99114.97;;;1.49;62.35
69737;BME280;64476;55.004;73.342;2023-03-01T09:33:46;99178.03;;;1.87;62.76
69737;BME280;64476;55.004;73.342;2023-03-01T09:36:50;99115.63;;;1.51;62.44
69737;BME280;64476;55.004;73.342;2023-03-01T09:40:04;99157.31;;;1.77;62.51
69737;BME280;64476;55.004;73.342;2023-03-01T09:43:46;99112.63;;;1.55;62.11
69737;BME280;64476;55.004;73.342;2023-03-01T09:46:50;99135.38;;;1.81;62.62
69737;BME280;64476;55.004;73.342;2023-03-01T09:53:30;99135.38;;;1.81;62.25
69737;BME280;64476;55.004;73.342;2023-03-01T09:56:35;99143.41;;;1.88;62.58
69737;BME280;64476;55.004;73.342;2023-03-01T10:03:36;99156.94;;;2.01;62.35
69737;BME280;64476;55.004;73.342;2023-03-01T10:06:29;99118.88;;;1.82;62.48
69737;BME280;64476;55.004;73.342;2023-03-01T10:09:34;99128.16;;;1.94;61.83
69737;BME280;64476;55.004;73.342;2023-03-01T10:12:39;99129.78;;;1.95;62.25
69737;BME280;64476;55.004;73.342;2023-03-01T10:15:47;99109.47;;;1.81;61.77
69737;BME280;64476;55.004;73.342;2023-03-01T10:19:02;99026.41;;;1.26;62.49
69737;BME280;64476;55.004;73.342;2023-03-01T10:22:16;99094.22;;;1.68;62.00
69737;BME280;64476;55.004;73.342;2023-03-01T10:29:15;99079.66;;;1.48;61.68
69737;BME280;64476;55.004;73.342;2023-03-01T10:32:18;99120.25;;;1.67;62.65
69737;BME280;64476;55.004;73.342;2023-03-01T10:35:28;99058.16;;;1.28;62.61
69737;BME280;64476;55.004;73.342;2023-03-01T10:38:33;99022.22;;;1.05;62.16
69737;BME280;64476;55.004;73.342;2023-03-01T10:42:07;99063.34;;;1.28;62.56
69737;BME280;64476;55.004;73.342;2023-03-01T10:45:35;99050.00;;;1.23;62.11
69737;BME280;64476;55.004;73.342;2023-03-01T10:48:38;99099.44;;;1.49;62.69
69737;BME280;64476;55.004;73.342;2023-03-01T10:51:41;99090.84;;;1.58;62.83
69737;BME280;64476;55.004;73.342;2023-03-01T10:54:52;99094.88;;;1.70;62.47
69737;BME280;64476;55.004;73.342;2023-03-01T10:58:19;99102.53;;;1.72;61.71
69737;BME280;64476;55.004;73.342;2023-03-01T11:01:35;99074.75;;;1.45;62.20
69737;BME280;64476;55.004;73.342;2023-03-01T11:08:39;99093.84;;;1.24;63.59
69737;BME280;64476;55.004;73.342;2023-03-01T11:11:41;99045.63;;;0.94;63.02
69737;BME280;64476;55.004;73.342;2023-03-01T11:14:54;99036.91;;;0.76;63.47
69737;BME280;64476;55.004;73.342;2023-03-01T11:17:57;99067.13;;;0.95;63.56
69737;BME280;64476;55.004;73.342;2023-03-01T11:21:04;99071.50;;;0.94;64.04
69737;BME280;64476;55.004;73.342;2023-03-01T11:24:29;99078.44;;;1.03;63.82
69737;BME280;64476;55.004;73.342;2023-03-01T11:27:46;99065.75;;;1.00;63.55
69737;BME280;64476;55.004;73.342;2023-03-01T11:31:07;99060.47;;;1.02;63.82
69737;BME280;64476;55.004;73.342;2023-03-01T11:34:19;99026.56;;;0.76;64.14
69737;BME280;64476;55.004;73.342;2023-03-01T11:37:54;99063.19;;;1.00;64.02
69737;BME280;64476;55.004;73.342;2023-03-01T11:41:14;99056.25;;;1.11;63.96
69737;BME280;64476;55.004;73.342;2023-03-01T11:44:24;98988.84;;;0.73;63.57
69737;BME280;64476;55.004;73.342;2023-03-01T11:50:50;99012.41;;;0.90;63.58
69737;BME280;64476;55.004;73.342;2023-03-01T11:54:50;99034.59;;;1.12;64.59
69737;BME280;64476;55.004;73.342;2023-03-01T11:58:05;99026.81;;;1.12;64.24
69737;BME280;64476;55.004;73.342;2023-03-01T12:08:37;99002.19;;;1.07;63.78
69737;BME280;64476;55.004;73.342;2023-03-01T12:22:39;99013.75;;;1.03;64.48
69737;BME280;64476;55.004;73.342;2023-03-01T12:49:58;98948.16;;;0.85;64.72
69737;BME280;64476;55.004;73.342;2023-03-01T12:53:01;98982.72;;;1.13;64.17
69737;BME280;64476;55.004;73.342;2023-03-01T12:56:22;98937.53;;;0.88;63.78
69737;BME280;64476;55.004;73.342;2023-03-01T13:00:02;98972.66;;;1.10;64.60
69737;BME280;64476;55.004;73.342;2023-03-01T13:03:04;98973.47;;;1.11;64.62
69737;BME280;64476;55.004;73.342;2023-03-01T13:13:36;98920.81;;;0.53;64.45
69737;BME280;64476;55.004;73.342;2023-03-01T13:16:40;98881.63;;;0.29;64.80
69737;BME280;64476;55.004;73.342;2023-03-01T13:19:57;98977.84;;;0.91;65.12
69737;BME280;64476;55.004;73.342;2023-03-01T13:26:23;98954.69;;;0.89;65.25
69737;BME280;64476;55.004;73.342;2023-03-01T13:39:47;98975.94;;;1.02;64.50
69737;BME280;64476;55.004;73.342;2023-03-01T13:42:55;98954.97;;;0.86;64.80
69737;BME280;64476;55.004;73.342;2023-03-01T13:45:58;98935.53;;;0.72;65.07
69737;BME280;64476;55.004;73.342;2023-03-01T13:49:01;98925.28;;;0.71;64.53
69737;BME280;64476;55.004;73.342;2023-03-01T13:52:05;98959.47;;;0.94;65.02
69737;BME280;64476;55.004;73.342;2023-03-01T13:55:27;98942.06;;;0.86;64.68
69737;BME280;64476;55.004;73.342;2023-03-01T13:58:33;98908.03;;;0.62;64.76
69737;BME280;64476;55.004;73.342;2023-03-01T14:02:00;98902.19;;;0.69;64.84
69737;BME280;64476;55.004;73.342;2023-03-01T14:05:02;98908.31;;;0.68;64.82
69737;BME280;64476;55.004;73.342;2023-03-01T14:08:17;98949.50;;;0.99;64.79
69737;BME280;64476;55.004;73.342;2023-03-01T14:18:29;98926.91;;;1.11;64.65
69737;BME280;64476;55.004;73.342;2023-03-01T14:21:47;98861.19;;;0.74;64.81
69737;BME280;64476;55.004;73.342;2023-03-01T14:24:56;98925.09;;;1.21;63.95
69737;BME280;64476;55.004;73.342;2023-03-01T14:28:17;98904.69;;;1.18;64.05
69737;BME280;64476;55.004;73.342;2023-03-01T14:31:36;98863.47;;;1.06;64.47
69737;BME280;64476;55.004;73.342;2023-03-01T14:34:46;98874.06;;;1.23;63.96
69737;BME280;64476;55.004;73.342;2023-03-01T14:37:48;98880.53;;;1.37;63.85
69737;BME280;64476;55.004;73.342;2023-03-01T14:41:02;98884.22;;;1.34;64.52
69737;BME280;64476;55.004;73.342;2023-03-01T14:44:07;98818.13;;;1.02;63.78
69737;BME280;64476;55.004;73.342;2023-03-01T14:47:44;98830.22;;;1.12;63.89
69737;BME280;64476;55.004;73.342;2023-03-01T14:50:47;98867.03;;;1.33;63.81
69737;BME280;64476;55.004;73.342;2023-03-01T14:53:50;98834.72;;;1.19;63.69
69737;BME280;64476;55.004;73.342;2023-03-01T14:56:54;98830.19;;;1.21;63.05
69737;BME280;64476;55.004;73.342;2023-03-01T15:00:01;98821.38;;;1.14;63.78
69737;BME280;64476;55.004;73.342;2023-03-01T15:06:44;98796.72;;;1.20;63.28
69737;BME280;64476;55.004;73.342;2023-03-01T15:09:51;98846.16;;;1.44;62.68
69737;BME280;64476;55.004;73.342;2023-03-01T15:13:28;98870.59;;;1.60;62.80
69737;BME280;64476;55.004;73.342;2023-03-01T15:16:39;98856.84;;;1.59;62.27
69737;BME280;64476;55.004;73.342;2023-03-01T15:19:47;98845.56;;;1.60;62.28
69737;BME280;64476;55.004;73.342;2023-03-01T15:22:49;98804.00;;;1.34;62.40
69737;BME280;64476;55.004;73.342;2023-03-01T15:25:53;98849.25;;;1.57;62.22
69737;BME280;64476;55.004;73.342;2023-03-01T15:29:00;98832.13;;;1.47;61.84
69737;BME280;64476;55.004;73.342;2023-03-01T15:35:45;98847.31;;;1.32;62.28
69737;BME280;64476;55.004;73.342;2023-03-01T15:45:36;98825.50;;;1.35;62.66
69737;BME280;64476;55.004;73.342;2023-03-01T15:48:52;98797.94;;;1.16;62.57
69737;BME280;64476;55.004;73.342;2023-03-01T15:51:56;98828.50;;;1.30;62.48
69737;BME280;64476;55.004;73.342;2023-03-01T15:55:00;98785.59;;;1.00;62.36
69737;BME280;64476;55.004;73.342;2023-03-01T15:58:20;98843.41;;;1.18;62.47
69737;BME280;64476;55.004;73.342;2023-03-01T16:01:32;98753.63;;;0.54;62.57
69737;BME280;64476;55.004;73.342;2023-03-01T16:04:41;98808.78;;;0.82;62.94
69737;BME280;64476;55.004;73.342;2023-03-01T16:07:43;98830.16;;;0.84;63.18
69737;BME280;64476;55.004;73.342;2023-03-01T16:10:45;98847.72;;;0.80;63.55
69737;BME280;64476;55.004;73.342;2023-03-01T16:13:49;98816.75;;;0.61;63.70
69737;BME280;64476;55.004;73.342;2023-03-01T16:16:53;98829.09;;;0.67;64.11
69737;BME280;64476;55.004;73.342;2023-03-01T16:20:06;98784.69;;;0.34;63.84
69737;BME280;64476;55.004;73.342;2023-03-01T16:23:10;98778.28;;;0.29;64.16
69737;BME280;64476;55.004;73.342;2023-03-01T16:26:18;98810.22;;;0.57;64.21
69737;BME280;64476;55.004;73.342;2023-03-01T16:29:20;98808.31;;;0.69;63.88
69737;BME280;64476;55.004;73.342;2023-03-01T16:32:22;98769.69;;;0.48;63.71
69737;BME280;64476;55.004;73.342;2023-03-01T16:35:44;98820.53;;;0.76;64.27
69737;BME280;64476;55.004;73.342;2023-03-01T16:38:52;98803.41;;;0.66;63.57
69737;BME280;64476;55.004;73.342;2023-03-01T16:42:02;98799.63;;;0.50;64.52
69737;BME280;64476;55.004;73.342;2023-03-01T16:45:14;98682.09;;;-0.22;64.32
69737;BME280;64476;55.004;73.342;2023-03-01T16:48:26;98784.00;;;0.42;64.43
69737;BME280;64476;55.004;73.342;2023-03-01T16:51:28;98817.69;;;0.60;64.33
69737;BME280;64476;55.004;73.342;2023-03-01T16:54:36;98735.59;;;0.15;64.57
69737;BME280;64476;55.004;73.342;2023-03-01T16:57:42;98762.63;;;0.30;64.18
69737;BME280;64476;55.004;73.342;2023-03-01T17:00:53;98793.22;;;0.45;64.87
69737;BME280;64476;55.004;73.342;2023-03-01T17:08:10;98795.97;;;0.43;65.08
69737;BME280;64476;55.004;73.342;2023-03-01T17:11:19;98808.34;;;0.40;65.48
69737;BME280;64476;55.004;73.342;2023-03-01T17:14:29;98797.72;;;0.33;65.31
69737;BME280;64476;55.004;73.342;2023-03-01T17:17:37;98792.84;;;0.30;65.29
69737;BME280;64476;55.004;73.342;2023-03-01T17:20:46;98801.94;;;0.34;65.04
69737;BME280;64476;55.004;73.342;2023-03-01T17:24:00;98795.84;;;0.25;65.86
69737;BME280;64476;55.004;73.342;2023-03-01T17:27:03;98743.63;;;-0.07;65.50
69737;BME280;64476;55.004;73.342;2023-03-01T17:30:07;98797.06;;;0.31;65.97
69737;BME280;64476;55.004;73.342;2023-03-01T17:33:15;98777.75;;;0.25;65.15
69737;BME280;64476;55.004;73.342;2023-03-01T17:36:18;98774.91;;;0.28;65.34
69737;BME280;64476;55.004;73.342;2023-03-01T17:39:20;98783.31;;;0.30;65.61
69737;BME280;64476;55.004;73.342;2023-03-01T17:42:26;98788.75;;;0.37;65.28
69737;BME280;64476;55.004;73.342;2023-03-01T17:45:28;98772.44;;;0.27;65.52
69737;BME280;64476;55.004;73.342;2023-03-01T17:48:30;98695.81;;;-0.12;65.62
69737;BME280;64476;55.004;73.342;2023-03-01T17:51:33;98735.59;;;0.15;65.38
69737;BME280;64476;55.004;73.342;2023-03-01T17:54:35;98715.50;;;0.09;65.54
69737;BME280;64476;55.004;73.342;2023-03-01T17:57:38;98703.00;;;0.04;65.11
69737;BME280;64476;55.004;73.342;2023-03-01T18:00:46;98729.31;;;0.37;65.19
69737;BME280;64476;55.004;73.342;2023-03-01T18:03:52;98714.13;;;0.15;64.57
69737;BME280;64476;55.004;73.342;2023-03-01T18:06:55;98725.75;;;0.48;64.92
69737;BME280;64476;55.004;73.342;2023-03-01T18:09:57;98699.69;;;0.31;64.73
69737;BME280;64476;55.004;73.342;2023-03-01T18:13:00;98734.44;;;0.56;64.79
69737;BME280;64476;55.004;73.342;2023-03-01T18:16:06;98656.66;;;0.03;64.97
69737;BME280;64476;55.004;73.342;2023-03-01T18:19:10;98738.16;;;0.44;64.71
69737;BME280;64476;55.004;73.342;2023-03-01T18:22:12;98704.72;;;0.33;64.35
69737;BME280;64476;55.004;73.342;2023-03-01T18:25:15;98702.81;;;0.35;64.61
69737;BME280;64476;55.004;73.342;2023-03-01T18:28:21;98685.59;;;0.16;64.77
69737;BME280;64476;55.004;73.342;2023-03-01T18:31:25;98689.22;;;0.33;64.61
69737;BME280;64476;55.004;73.342;2023-03-01T18:34:27;98694.75;;;0.38;64.63
69737;BME280;64476;55.004;73.342;2023-03-01T18:37:29;98697.22;;;0.40;64.35
69737;BME280;64476;55.004;73.342;2023-03-01T18:40:30;98723.34;;;0.36;64.43
69737;BME280;64476;55.004;73.342;2023-03-01T18:43:32;98734.59;;;0.45;64.24
69737;BME280;64476;55.004;73.342;2023-03-01T18:46:34;98722.91;;;0.41;64.76
69737;BME280;64476;55.004;73.342;2023-03-01T18:49:47;98740.19;;;0.50;64.46
69737;BME280;64476;55.004;73.342;2023-03-01T18:52:49;98734.84;;;0.52;64.53
69737;BME280;64476;55.004;73.342;2023-03-01T18:56:01;98731.91;;;0.37;64.33